createdAt,value
2022-10-13T00:01:14.746Z,8.85
2022-10-13T00:03:43.435Z,9.38
2022-10-13T00:06:12.042Z,11.25
2022-10-13T00:08:40.329Z,9.82
2022-10-13T00:11:18.181Z,9.35
2022-10-13T00:13:47.267Z,9.63
2022-10-13T00:16:17.290Z,9.77
2022-10-13T00:18:46.051Z,9.05
2022-10-13T00:21:17.055Z,9.70
2022-10-13T00:23:45.008Z,8.65
2022-10-13T00:26:15.344Z,8.93
2022-10-13T00:28:44.751Z,9.27
2022-10-13T00:31:26.252Z,8.60
2022-10-13T00:33:54.290Z,9.82
2022-10-13T00:36:24.102Z,8.32
2022-10-13T00:38:53.316Z,7.68
2022-10-13T00:41:21.920Z,8.65
2022-10-13T00:44:01.031Z,8.05
2022-10-13T00:46:32.496Z,9.43
2022-10-13T00:49:03.228Z,9.50
2022-10-13T00:51:34.802Z,10.02
2022-10-13T00:54:04.635Z,9.82
2022-10-13T00:56:33.014Z,10.50
2022-10-13T00:59:01.874Z,8.90
2022-10-13T01:01:29.918Z,9.93
2022-10-13T01:03:57.607Z,9.98
2022-10-13T01:06:25.715Z,8.60
2022-10-13T01:08:53.383Z,9.65
2022-10-13T01:11:23.955Z,8.75
2022-10-13T01:14:01.086Z,9.48
2022-10-13T01:17:15.211Z,9.30
2022-10-13T01:20:04.644Z,8.15
2022-10-13T01:22:54.164Z,8.85
2022-10-13T01:25:43.653Z,8.68
2022-10-13T01:28:33.073Z,8.52
2022-10-13T01:31:12.124Z,9.95
2022-10-13T01:34:09.018Z,9.15
2022-10-13T01:37:08.483Z,9.13
2022-10-13T01:39:46.347Z,8.82
2022-10-13T01:42:25.797Z,9.30
2022-10-13T01:45:00.025Z,9.07
2022-10-13T01:47:28.599Z,10.25
2022-10-13T01:49:58.048Z,9.88
2022-10-13T01:52:29.162Z,9.18
2022-10-13T01:54:59.583Z,10.63
2022-10-13T01:57:36.117Z,10.35
2022-10-13T02:00:09.957Z,8.95
2022-10-13T02:03:02.446Z,9.35
2022-10-13T02:05:39.082Z,9.52
2022-10-13T02:08:18.340Z,10.02
2022-10-13T02:10:59.822Z,9.23
2022-10-13T02:13:30.560Z,9.80
2022-10-13T02:16:01.709Z,8.68
2022-10-13T02:18:35.797Z,10.15
2022-10-13T02:21:04.645Z,9.60
2022-10-13T02:23:32.812Z,8.65
2022-10-13T02:26:00.936Z,9.00
2022-10-13T02:28:29.266Z,9.48
2022-10-13T02:30:57.125Z,9.80
2022-10-13T02:33:24.774Z,8.90
2022-10-13T02:35:52.349Z,10.15
2022-10-13T02:38:20.016Z,8.90
2022-10-13T02:40:47.641Z,8.77
2022-10-13T02:43:15.260Z,9.27
2022-10-13T02:45:42.857Z,9.23
2022-10-13T02:48:10.601Z,10.10
2022-10-13T02:50:38.508Z,10.00
2022-10-13T02:53:06.103Z,9.55
2022-10-13T02:55:33.774Z,9.90
2022-10-13T02:58:01.425Z,9.10
2022-10-13T03:00:29.253Z,9.23
2022-10-13T03:02:57.336Z,9.32
2022-10-13T03:05:25.017Z,9.77
2022-10-13T03:07:52.673Z,9.77
2022-10-13T03:10:20.478Z,9.18
2022-10-13T03:12:48.280Z,10.13
2022-10-13T03:15:16.046Z,9.50
2022-10-13T03:17:44.161Z,9.02
2022-10-13T03:20:11.870Z,8.50
2022-10-13T03:22:39.553Z,8.60
2022-10-13T03:25:07.529Z,9.25
2022-10-13T03:27:35.210Z,8.68
2022-10-13T03:30:03.209Z,8.70
2022-10-13T03:32:33.637Z,8.40
2022-10-13T03:35:01.619Z,9.20
2022-10-13T03:37:31.762Z,9.23
2022-10-13T03:39:59.419Z,8.65
2022-10-13T03:42:27.080Z,9.70
2022-10-13T03:44:56.568Z,10.02
2022-10-13T03:47:25.039Z,9.73
2022-10-13T03:49:55.295Z,9.45
2022-10-13T03:52:23.974Z,9.10
2022-10-13T03:54:51.594Z,10.23
2022-10-13T03:57:19.229Z,10.13
2022-10-13T03:59:46.838Z,9.63
2022-10-13T04:02:14.657Z,10.40
2022-10-13T04:04:42.317Z,10.00
2022-10-13T04:07:09.983Z,10.45
2022-10-13T04:09:37.643Z,9.70
2022-10-13T04:12:05.657Z,8.98
2022-10-13T04:14:33.342Z,8.98
2022-10-13T04:17:00.971Z,8.48
2022-10-13T04:19:28.630Z,9.45
2022-10-13T04:21:56.218Z,9.55
2022-10-13T04:24:23.855Z,8.90
2022-10-13T04:26:51.529Z,8.65
2022-10-13T04:29:19.160Z,8.32
2022-10-13T04:31:46.830Z,8.95
2022-10-13T04:34:14.478Z,8.82
2022-10-13T04:36:42.127Z,8.57
2022-10-13T04:39:09.725Z,8.50
2022-10-13T04:41:37.367Z,8.40
2022-10-13T04:44:05.012Z,8.80
2022-10-13T04:46:32.599Z,9.32
2022-10-13T04:49:00.202Z,9.93
2022-10-13T04:51:28.048Z,9.15
2022-10-13T04:53:58.350Z,8.43
2022-10-13T04:56:26.971Z,9.98
2022-10-13T04:58:54.767Z,10.15
2022-10-13T05:01:24.760Z,10.27
2022-10-13T05:03:57.273Z,9.90
2022-10-13T05:06:27.802Z,9.73
2022-10-13T05:08:55.887Z,10.57
2022-10-13T05:11:25.349Z,10.52
2022-10-13T05:13:53.190Z,10.90
2022-10-13T05:16:22.319Z,11.35
2022-10-13T05:18:51.692Z,11.10
2022-10-13T05:21:25.278Z,11.70
2022-10-13T05:23:56.468Z,11.48
2022-10-13T05:26:30.068Z,10.75
2022-10-13T05:28:59.247Z,11.20
2022-10-13T05:31:29.549Z,11.50
2022-10-13T05:33:57.857Z,11.70
2022-10-13T05:36:32.331Z,11.23
2022-10-13T05:39:02.800Z,12.45
2022-10-13T05:41:31.830Z,12.30
2022-10-13T05:44:02.665Z,11.25
2022-10-13T05:46:30.495Z,12.52
2022-10-13T05:48:58.230Z,12.07
2022-10-13T05:51:29.433Z,12.30
2022-10-13T05:54:10.116Z,12.60
2022-10-13T05:56:42.414Z,11.77
2022-10-13T05:59:15.025Z,11.27
2022-10-13T06:01:44.392Z,12.52
2022-10-13T06:04:18.295Z,11.85
2022-10-13T06:06:46.691Z,12.52
2022-10-13T06:09:14.531Z,11.80
2022-10-13T06:11:42.321Z,11.63
2022-10-13T06:14:10.082Z,12.18
2022-10-13T06:16:38.126Z,11.35
2022-10-13T06:19:07.143Z,12.00
2022-10-13T06:21:37.926Z,12.43
2022-10-13T06:24:05.804Z,12.63
2022-10-13T06:26:33.505Z,11.52
2022-10-13T06:29:01.413Z,13.93
2022-10-13T06:31:29.579Z,11.73
2022-10-13T06:33:57.225Z,12.40
2022-10-13T06:36:24.906Z,11.43
2022-10-13T06:38:52.797Z,11.07
2022-10-13T06:41:20.448Z,12.55
2022-10-13T06:43:48.110Z,12.90
2022-10-13T06:46:15.878Z,12.23
2022-10-13T06:48:43.574Z,12.52
2022-10-13T06:51:12.950Z,12.50
2022-10-13T06:53:40.612Z,12.80
2022-10-13T06:56:09.788Z,12.60
2022-10-13T06:58:38.585Z,11.85
2022-10-13T07:01:07.043Z,11.70
2022-10-13T07:03:34.958Z,11.90
2022-10-13T07:06:06.956Z,11.40
2022-10-13T07:08:35.709Z,11.23
2022-10-13T07:11:16.362Z,12.23
2022-10-13T07:13:46.674Z,11.38
2022-10-13T07:16:15.180Z,12.30
2022-10-13T07:18:43.174Z,11.23
2022-10-13T07:21:10.809Z,11.63
2022-10-13T07:23:38.441Z,11.05
2022-10-13T07:26:17.512Z,11.90
2022-10-13T07:28:46.247Z,13.23
2022-10-13T07:31:17.536Z,13.45
2022-10-13T07:33:48.469Z,11.05
2022-10-13T07:36:16.487Z,11.52
2022-10-13T07:38:44.151Z,11.32
2022-10-13T07:41:13.170Z,10.63
2022-10-13T07:43:41.508Z,10.60
2022-10-13T07:46:10.137Z,10.38
2022-10-13T07:48:37.905Z,11.38
2022-10-13T07:51:13.840Z,11.60
2022-10-13T07:53:43.900Z,10.63
2022-10-13T07:56:13.471Z,11.25
2022-10-13T07:58:46.656Z,11.18
2022-10-13T08:01:15.521Z,11.15
2022-10-13T08:03:47.184Z,11.00
2022-10-13T08:06:18.693Z,12.25
2022-10-13T08:08:46.879Z,11.05
2022-10-13T08:11:17.125Z,11.75
2022-10-13T08:13:52.241Z,11.43
2022-10-13T08:16:20.723Z,11.02
2022-10-13T08:18:49.327Z,10.15
2022-10-13T08:24:12.327Z,11.07
2022-10-13T08:26:40.702Z,10.15
2022-10-13T08:29:24.373Z,10.27
2022-10-13T08:31:54.364Z,10.50
2022-10-13T08:34:24.060Z,9.90
2022-10-13T08:36:54.499Z,11.27
2022-10-13T08:39:23.917Z,11.05
2022-10-13T08:41:51.667Z,11.20
2022-10-13T08:47:39.109Z,11.38
2022-10-13T08:50:16.212Z,10.20
2022-10-13T08:52:49.443Z,10.90
2022-10-13T08:55:53.136Z,10.60
2022-10-13T08:58:26.989Z,10.05
2022-10-13T09:01:19.816Z,10.07
2022-10-13T09:03:54.602Z,11.25
2022-10-13T09:06:33.258Z,9.95
2022-10-13T09:09:07.433Z,9.60
2022-10-13T09:11:44.010Z,8.93
2022-10-13T09:14:20.125Z,9.27
2022-10-13T09:16:47.993Z,8.52
2022-10-13T09:19:37.498Z,9.35
2022-10-13T09:22:29.411Z,9.20
2022-10-13T09:25:11.287Z,9.75
2022-10-13T09:27:59.157Z,9.57
2022-10-13T09:30:37.758Z,9.93
2022-10-13T09:33:14.152Z,9.43
2022-10-13T09:35:45.489Z,9.60
2022-10-13T09:38:22.156Z,9.27
2022-10-13T09:41:11.664Z,9.95
2022-10-13T09:43:48.778Z,10.77
2022-10-13T09:46:27.033Z,10.57
2022-10-13T09:49:07.921Z,10.80
2022-10-13T09:51:46.119Z,10.77
2022-10-13T09:54:48.063Z,10.23
2022-10-13T09:57:18.804Z,10.57
2022-10-13T10:00:13.781Z,12.52
2022-10-13T10:02:56.672Z,10.38
2022-10-13T10:05:45.808Z,10.35
2022-10-13T10:08:28.959Z,11.20
2022-10-13T10:11:04.396Z,10.90
2022-10-13T10:13:32.287Z,11.43
2022-10-13T10:16:31.022Z,11.07
2022-10-13T10:19:07.191Z,10.73
2022-10-13T10:21:37.933Z,10.68
2022-10-13T10:24:17.854Z,11.30
2022-10-13T10:27:08.528Z,11.07
2022-10-13T10:29:58.747Z,11.07
2022-10-13T10:32:31.968Z,10.30
2022-10-13T10:35:05.798Z,10.82
2022-10-13T10:38:04.565Z,10.30
2022-10-13T10:40:57.440Z,10.50
2022-10-13T10:44:03.622Z,10.95
2022-10-13T10:46:37.064Z,10.80
2022-10-13T10:49:24.117Z,11.75
2022-10-13T10:51:51.994Z,11.77
2022-10-13T10:54:19.561Z,11.18
2022-10-13T10:56:56.134Z,10.88
2022-10-13T10:59:32.872Z,10.55
2022-10-13T11:02:09.416Z,11.20
2022-10-13T11:04:45.869Z,10.98
2022-10-13T11:07:15.357Z,10.80
2022-10-13T11:09:42.888Z,11.43
2022-10-13T11:12:22.778Z,10.65
2022-10-13T11:15:13.989Z,11.40
2022-10-13T11:17:42.507Z,11.02
2022-10-13T11:20:36.155Z,11.27
2022-10-13T11:23:03.777Z,10.70
2022-10-13T11:25:42.347Z,11.02
2022-10-13T11:28:22.450Z,11.07
2022-10-13T11:30:56.249Z,11.07
2022-10-13T11:33:52.474Z,10.85
2022-10-13T11:36:40.598Z,10.52
2022-10-13T11:42:26.425Z,10.82
2022-10-13T11:45:22.644Z,10.52
2022-10-13T11:47:59.368Z,10.45
2022-10-13T11:51:16.242Z,10.00
2022-10-13T11:53:56.151Z,9.73
2022-10-13T11:56:39.689Z,10.38
2022-10-13T11:59:24.560Z,10.23
2022-10-13T12:02:00.148Z,10.90
2022-10-13T12:04:29.757Z,10.60
2022-10-13T12:07:09.838Z,9.32
2022-10-13T12:09:48.471Z,10.38
2022-10-13T12:12:18.818Z,9.70
2022-10-13T12:14:51.670Z,11.38
2022-10-13T12:17:28.702Z,10.57
2022-10-13T12:19:58.907Z,10.88
2022-10-13T12:22:26.879Z,10.55
2022-10-13T12:25:19.592Z,10.15
2022-10-13T12:27:52.583Z,10.00
2022-10-13T12:30:30.752Z,12.27
2022-10-13T12:33:01.434Z,10.82
2022-10-13T12:35:38.054Z,10.63
2022-10-13T12:38:14.616Z,11.30
2022-10-13T12:40:42.376Z,9.90
2022-10-13T12:43:17.286Z,10.77
2022-10-13T12:45:45.487Z,10.10
2022-10-13T12:48:33.733Z,10.73
2022-10-13T12:51:21.748Z,10.10
2022-10-13T12:53:49.792Z,10.82
2022-10-13T12:56:29.439Z,9.88
2022-10-13T12:58:57.837Z,10.18
2022-10-13T13:01:31.969Z,10.18
2022-10-13T13:04:24.250Z,11.05
2022-10-13T13:06:56.429Z,10.07
2022-10-13T13:09:26.790Z,11.20
2022-10-13T13:12:09.808Z,10.45
2022-10-13T13:14:45.900Z,10.95
2022-10-13T13:17:15.459Z,10.27
2022-10-13T13:19:50.399Z,10.38
2022-10-13T13:22:18.444Z,10.48
2022-10-13T13:24:47.236Z,10.63
2022-10-13T13:27:42.066Z,10.50
2022-10-13T13:30:14.676Z,10.35
2022-10-13T13:32:42.370Z,9.77
2022-10-13T13:35:10.868Z,10.18
2022-10-13T13:37:41.245Z,10.07
2022-10-13T13:40:16.283Z,10.60
2022-10-13T13:42:43.918Z,10.18
2022-10-13T13:45:19.293Z,10.90
2022-10-13T13:47:48.565Z,10.35
2022-10-13T13:50:23.401Z,10.20
2022-10-13T13:52:51.064Z,10.90
2022-10-13T13:55:19.511Z,9.57
2022-10-13T13:57:47.641Z,11.00
2022-10-13T14:00:16.990Z,10.55
2022-10-13T14:02:45.490Z,10.95
2022-10-13T14:05:13.635Z,10.90
2022-10-13T14:07:41.716Z,9.85
2022-10-13T14:10:11.390Z,11.48
2022-10-13T14:12:39.620Z,10.90
2022-10-13T14:15:08.139Z,11.00
2022-10-13T14:17:38.340Z,10.50
2022-10-13T14:20:06.713Z,11.63
2022-10-13T14:22:34.355Z,11.85
2022-10-13T14:25:02.153Z,11.50
2022-10-13T14:27:30.035Z,10.88
2022-10-13T14:29:57.979Z,11.05
2022-10-13T14:32:25.646Z,10.93
2022-10-13T14:34:53.329Z,10.48
2022-10-13T14:37:23.173Z,10.13
2022-10-13T14:39:51.865Z,11.45
2022-10-13T14:42:19.554Z,10.55
2022-10-13T14:44:47.213Z,11.07
2022-10-13T14:47:14.878Z,10.40
2022-10-13T14:49:44.202Z,11.05
2022-10-13T14:52:11.921Z,10.48
2022-10-13T14:54:43.899Z,10.48
2022-10-13T14:57:16.624Z,10.48
2022-10-13T14:59:44.555Z,9.95
2022-10-13T15:02:12.891Z,10.13
2022-10-13T15:04:40.926Z,9.85
2022-10-13T15:07:08.793Z,10.50
2022-10-13T15:09:52.739Z,10.15
2022-10-13T15:12:24.327Z,10.95
2022-10-13T15:14:51.932Z,10.25
2022-10-13T15:17:19.597Z,9.15
2022-10-13T15:19:47.306Z,9.95
2022-10-13T15:22:15.035Z,11.00
2022-10-13T15:24:43.421Z,9.27
2022-10-13T15:27:11.055Z,9.77
2022-10-13T15:29:38.779Z,9.82
2022-10-13T15:32:12.424Z,10.10
2022-10-13T15:34:43.113Z,10.23
2022-10-13T15:37:10.734Z,10.02
2022-10-13T15:39:38.931Z,9.80
2022-10-13T15:42:06.624Z,10.55
2022-10-13T15:44:57.373Z,10.77
2022-10-13T15:47:22.070Z,9.07
2022-10-13T15:49:49.673Z,9.80
2022-10-13T15:52:17.481Z,9.27
2022-10-13T15:54:45.276Z,9.65
2022-10-13T15:57:12.941Z,9.52
2022-10-13T15:59:40.559Z,9.70
2022-10-13T16:02:08.328Z,10.48
2022-10-13T16:04:37.605Z,10.15
2022-10-13T16:07:06.037Z,9.00
2022-10-13T16:09:33.714Z,8.98
2022-10-13T16:12:01.328Z,9.40
2022-10-13T16:14:28.972Z,9.63
2022-10-13T16:16:58.739Z,8.88
2022-10-13T16:19:26.426Z,9.68
2022-10-13T16:21:54.214Z,10.07
2022-10-13T16:24:21.852Z,11.63
2022-10-13T16:26:49.558Z,9.07
2022-10-13T16:29:17.255Z,8.93
2022-10-13T16:31:46.569Z,9.18
2022-10-13T16:34:14.188Z,9.50
2022-10-13T16:36:41.796Z,9.55
2022-10-13T16:39:09.453Z,9.35
2022-10-13T16:41:37.206Z,9.98
2022-10-13T16:44:04.847Z,10.75
2022-10-13T16:46:34.312Z,9.80
2022-10-13T16:49:02.199Z,10.00
2022-10-13T16:51:30.222Z,11.40
2022-10-13T16:54:03.856Z,9.77
2022-10-13T16:56:32.764Z,9.88
2022-10-13T16:59:02.643Z,9.27
2022-10-13T17:01:31.255Z,9.15
2022-10-13T17:03:59.828Z,10.10
2022-10-13T17:06:29.617Z,9.52
2022-10-13T17:09:03.993Z,10.45
2022-10-13T17:11:33.400Z,9.73
2022-10-13T17:14:02.113Z,11.00
2022-10-13T17:16:30.242Z,9.75
2022-10-13T17:18:57.950Z,9.43
2022-10-13T17:21:25.704Z,10.13
2022-10-13T17:23:55.551Z,10.77
2022-10-13T17:26:23.919Z,10.30
2022-10-13T17:28:51.712Z,10.98
2022-10-13T17:31:22.414Z,10.82
2022-10-13T17:33:51.400Z,10.68
2022-10-13T17:36:28.181Z,11.52
2022-10-13T17:38:57.599Z,11.18
2022-10-13T17:41:25.736Z,12.55
2022-10-13T17:43:53.924Z,11.27
2022-10-13T17:46:36.347Z,11.60
2022-10-13T17:49:06.016Z,11.95
2022-10-13T17:51:33.811Z,11.43
2022-10-13T17:54:01.989Z,12.93
2022-10-13T17:56:30.564Z,12.27
2022-10-13T17:58:58.547Z,11.50
2022-10-13T18:01:35.857Z,12.25
2022-10-13T18:04:09.506Z,11.55
2022-10-13T18:06:42.414Z,13.02
2022-10-13T18:09:15.448Z,12.77
2022-10-13T18:11:49.775Z,12.02
2022-10-13T18:14:19.088Z,11.98
2022-10-13T18:16:47.729Z,13.15
2022-10-13T18:19:15.577Z,11.50
2022-10-13T18:21:43.521Z,11.15
2022-10-13T18:24:12.563Z,12.00
2022-10-13T18:26:40.623Z,10.95
2022-10-13T18:29:10.081Z,11.07
2022-10-13T18:31:39.641Z,12.15
2022-10-13T18:34:11.461Z,10.88
2022-10-13T18:36:42.192Z,9.68
2022-10-13T18:39:09.828Z,9.60
2022-10-13T18:41:38.942Z,9.90
2022-10-13T18:44:07.588Z,8.93
2022-10-13T18:46:37.208Z,7.47
2022-10-13T18:49:12.301Z,7.78
2022-10-13T18:51:40.787Z,6.75
2022-10-13T18:54:09.219Z,5.85
2022-10-13T18:56:37.942Z,5.18
2022-10-13T18:59:08.032Z,5.95
2022-10-13T19:01:37.407Z,5.90
2022-10-13T19:04:06.428Z,5.75
2022-10-13T19:06:34.645Z,6.20
2022-10-13T19:09:05.269Z,5.78
2022-10-13T19:11:34.313Z,4.97
2022-10-13T19:14:02.785Z,5.35
2022-10-13T19:16:32.451Z,4.90
2022-10-13T19:19:00.595Z,4.85
2022-10-13T19:21:28.478Z,4.65
2022-10-13T19:23:59.261Z,4.25
2022-10-13T19:26:30.914Z,3.97
2022-10-13T19:29:02.812Z,3.70
2022-10-13T19:31:32.900Z,4.32
2022-10-13T19:34:01.203Z,4.40
2022-10-13T19:36:32.923Z,4.50
2022-10-13T19:39:01.711Z,4.87
2022-10-13T19:41:31.965Z,4.43
2022-10-13T19:44:01.398Z,4.45
2022-10-13T19:46:29.469Z,4.43
2022-10-13T19:48:57.245Z,4.72
2022-10-13T19:51:25.003Z,4.32
2022-10-13T19:53:53.033Z,4.53
2022-10-13T19:56:27.728Z,4.68
2022-10-13T19:58:56.034Z,3.90
2022-10-13T20:01:23.947Z,4.15
2022-10-13T20:03:52.432Z,3.70
2022-10-13T20:06:21.329Z,4.10
2022-10-13T20:08:50.044Z,4.15
2022-10-13T20:11:24.196Z,4.22
2022-10-13T20:13:53.250Z,5.30
2022-10-13T20:16:23.535Z,5.00
2022-10-13T20:18:56.842Z,4.60
2022-10-13T20:21:25.432Z,5.05
2022-10-13T20:23:53.524Z,5.85
2022-10-13T20:26:22.072Z,5.93
2022-10-13T20:28:51.591Z,5.12
2022-10-13T20:31:21.840Z,5.50
2022-10-13T20:33:54.108Z,5.53
2022-10-13T20:36:21.732Z,5.30
2022-10-13T20:38:50.263Z,5.07
2022-10-13T20:41:26.106Z,5.28
2022-10-13T20:43:55.447Z,5.53
2022-10-13T20:46:23.294Z,5.93
2022-10-13T20:49:09.814Z,5.47
2022-10-13T20:51:38.511Z,5.40
2022-10-13T20:54:06.401Z,4.97
2022-10-13T20:56:34.014Z,5.03
2022-10-13T20:59:07.974Z,4.93
2022-10-13T21:01:36.791Z,5.15
2022-10-13T21:04:05.892Z,5.32
2022-10-13T21:06:34.276Z,4.75
2022-10-13T21:09:01.976Z,5.37
2022-10-13T21:11:29.707Z,5.25
2022-10-13T21:13:58.483Z,5.22
2022-10-13T21:16:28.832Z,4.95
2022-10-13T21:18:57.881Z,4.68
2022-10-13T21:21:31.522Z,5.47
2022-10-13T21:24:01.083Z,5.57
2022-10-13T21:26:30.981Z,5.25
2022-10-13T21:28:59.465Z,5.18
2022-10-13T21:31:27.873Z,5.62
2022-10-13T21:33:55.773Z,5.70
2022-10-13T21:36:32.200Z,5.28
2022-10-13T21:39:02.467Z,5.05
2022-10-13T21:41:30.940Z,5.90
2022-10-13T21:43:58.856Z,5.78
2022-10-13T21:46:29.221Z,5.28
2022-10-13T21:48:59.411Z,5.10
2022-10-13T21:51:32.590Z,6.00
2022-10-13T21:54:06.957Z,4.65
2022-10-13T21:56:35.756Z,4.95
2022-10-13T21:59:04.620Z,5.80
2022-10-13T22:01:32.272Z,6.07
2022-10-13T22:04:01.970Z,5.70
2022-10-13T22:06:31.588Z,5.12
2022-10-13T22:09:01.110Z,5.00
2022-10-13T22:11:31.410Z,4.82
2022-10-13T22:14:00.027Z,5.87
2022-10-13T22:16:37.321Z,5.82
2022-10-13T22:19:05.032Z,5.72
2022-10-13T22:21:35.913Z,5.75
2022-10-13T22:24:07.013Z,5.55
2022-10-13T22:26:36.755Z,5.55
2022-10-13T22:29:07.163Z,5.50
2022-10-13T22:31:35.817Z,5.05
2022-10-13T22:34:04.150Z,5.62
2022-10-13T22:36:32.697Z,5.28
2022-10-13T22:39:03.968Z,5.28
2022-10-13T22:41:33.141Z,5.40
2022-10-13T22:44:01.884Z,4.75
2022-10-13T22:46:36.029Z,4.87
2022-10-13T22:49:04.306Z,5.05
2022-10-13T22:51:33.677Z,4.62
2022-10-13T22:54:02.195Z,4.90
2022-10-13T22:56:32.830Z,4.60
2022-10-13T22:59:07.114Z,4.57
2022-10-13T23:01:34.964Z,4.68
2022-10-13T23:04:02.867Z,5.22
2022-10-13T23:06:32.590Z,6.20
2022-10-13T23:09:06.279Z,4.70
2022-10-13T23:11:35.071Z,5.00
2022-10-13T23:14:03.398Z,4.93
2022-10-13T23:16:31.096Z,4.70
2022-10-13T23:18:58.757Z,4.25
2022-10-13T23:21:29.749Z,4.87
2022-10-13T23:24:00.037Z,4.90
2022-10-13T23:26:28.558Z,5.15
2022-10-13T23:28:57.587Z,4.55
2022-10-13T23:31:26.258Z,5.12
2022-10-13T23:33:54.358Z,5.07
2022-10-13T23:36:26.551Z,3.92
2022-10-13T23:39:12.574Z,4.53
2022-10-13T23:41:40.336Z,4.35
2022-10-13T23:44:07.962Z,3.83
2022-10-13T23:46:35.636Z,3.85
2022-10-13T23:49:03.290Z,4.95
2022-10-13T23:51:31.000Z,4.30
2022-10-13T23:53:59.819Z,4.55
2022-10-13T23:56:27.470Z,3.95
2022-10-13T23:58:55.103Z,4.60
